Terminal Aerodrome Forecast
Issued by NWS

Home | Current Version | Previous Version | Text Only | Print | Product List | Glossary On
Versions: 1 2 3 4 5 6 7 8 9 10 11 12 13 14 15
513
FTAK31 PAJN 302340
TAFAKT
TAF
PAKT 302340Z 0100/0124 VRB04KT P6SM -SHRA BKN035 OVC045
     FM010400 VRB05KT P6SM VCSH BKN030 BKN060
     FM011000 15007KT P6SM -SHRA BKN025 OVC040
     FM011500 15006KT P6SM VCSH BKN030 BKN060
     FM012100 15008KT P6SM BKN040 BKN080
      AMD LTD TO CLD VIS AND WIND 0106/0115=

USA.gov is the U.S. government's official web portal to all federal, state and local government web resources and services.